Time;durP1;ratioP1;P1;durP2;ratioP2;P2;SDS_P1;SDS_P2;PMS_P1;PMS_P2;Temp;Humidity;BMP_temperature;BMP_pressure;BME280_temperature;BME280_humidity;BME280_pressure;Samples;Min_cycle;Max_cycle;Signal;HPM_P1;HPM_P2
2021/10/31 00:01:28;;;;;;;42.90;20.72;;;;;;;2.50;78.95;98348.08;1689526;84;21050;-82
2021/10/31 00:03:55;;;;;;;36.33;20.48;;;;;;;2.47;78.84;98346.31;1677976;85;21082;-82
2021/10/31 00:06:22;;;;;;;40.85;21.30;;;;;;;2.47;78.93;98354.58;1677793;85;21011;-82
2021/10/31 00:08:49;;;;;;;44.08;22.45;;;;;;;2.47;78.57;98350.23;1678032;85;21086;-82
2021/10/31 00:11:17;;;;;;;42.23;21.52;;;;;;;2.46;79.07;98345.84;1691577;84;21004;-83
2021/10/31 00:13:44;;;;;;;38.13;22.10;;;;;;;2.44;78.43;98344.07;1706196;84;21095;-83
2021/10/31 00:16:11;;;;;;;38.92;23.12;;;;;;;2.40;78.33;98349.72;1706204;84;21033;-83
2021/10/31 00:18:42;;;;;;;44.13;22.17;;;;;;;2.36;79.45;98337.47;1705992;84;21068;-83
2021/10/31 00:21:09;;;;;;;43.55;22.02;;;;;;;2.30;78.62;98343.54;1705536;84;20996;-83
2021/10/31 00:23:36;;;;;;;46.70;22.95;;;;;;;2.26;79.35;98343.06;1706332;84;21059;-83
2021/10/31 00:26:02;;;;;;;43.60;22.22;;;;;;;2.22;80.21;98342.58;1706138;84;21021;-83
2021/10/31 00:28:29;;;;;;;43.13;21.60;;;;;;;2.14;78.85;98341.62;1706179;84;21488;-83
2021/10/31 00:30:56;;;;;;;44.50;22.65;;;;;;;2.08;78.30;98338.53;1694931;84;21083;-83
2021/10/31 00:33:22;;;;;;;40.17;21.15;;;;;;;2.08;78.22;98342.00;1706002;84;21430;-83
2021/10/31 00:35:49;;;;;;;39.67;21.65;;;;;;;2.05;78.43;98342.41;1705971;84;21074;-83
2021/10/31 00:38:16;;;;;;;39.85;21.75;;;;;;;2.00;78.12;98341.08;1706236;84;21056;-83
2021/10/31 00:40:44;;;;;;;34.90;19.50;;;;;;;1.95;78.00;98338.84;1705885;84;21012;-83
2021/10/31 00:43:11;;;;;;;45.83;21.60;;;;;;;1.89;78.21;98337.45;1706215;84;21040;-83
2021/10/31 00:45:38;;;;;;;42.58;21.10;;;;;;;1.87;78.01;98336.56;1704146;84;21668;-82
2021/10/31 00:48:05;;;;;;;38.65;21.27;;;;;;;1.82;78.34;98327.34;1706080;84;21345;-83
2021/10/31 00:50:32;;;;;;;39.18;21.95;;;;;;;1.77;78.17;98335.16;1706115;84;21497;-82
2021/10/31 00:52:59;;;;;;;40.25;21.68;;;;;;;1.71;81.61;98328.11;1706013;84;21088;-83
2021/10/31 00:55:26;;;;;;;41.05;22.30;;;;;;;1.70;79.12;98331.59;1701235;84;21586;-83
2021/10/31 00:57:53;;;;;;;41.02;21.65;;;;;;;1.69;79.63;98326.34;1700412;84;21116;-83
2021/10/31 01:00:21;;;;;;;40.33;21.27;;;;;;;1.69;79.00;98328.95;1697116;84;21005;-82
2021/10/31 01:02:47;;;;;;;41.63;21.10;;;;;;;1.68;78.69;98328.52;1700475;84;21542;-83
2021/10/31 01:05:19;;;;;;;36.75;19.48;;;;;;;1.69;78.70;98329.84;1700614;84;21076;-83
2021/10/31 01:08:19;;;;;;;37.33;18.75;;;;;;;1.68;78.62;98333.32;1700381;84;21457;-83
2021/10/31 01:11:23;;;;;;;32.50;18.40;;;;;;;1.66;78.82;98320.65;1712880;84;21060;-84
2021/10/31 01:14:22;;;;;;;43.13;19.80;;;;;;;1.68;79.20;98315.03;1708155;84;21042;-83
2021/10/31 01:17:15;;;;;;;37.28;20.35;;;;;;;1.67;80.53;98313.25;1684182;85;21033;-83
2021/10/31 01:19:56;;;;;;;38.10;19.00;;;;;;;1.71;80.61;98316.80;1707911;84;21020;-83
2021/10/31 01:23:03;;;;;;;34.75;18.73;;;;;;;1.74;80.32;98309.42;1708162;84;20993;-83
2021/10/31 01:25:41;;;;;;;35.98;18.37;;;;;;;1.76;80.31;98313.81;1699882;84;21063;-83
2021/10/31 01:28:22;;;;;;;35.17;18.50;;;;;;;1.78;80.25;98308.16;1679425;85;21024;-83
2021/10/31 01:31:07;;;;;;;35.98;18.15;;;;;;;1.76;80.79;98312.50;1693237;84;21013;-83
2021/10/31 01:34:23;;;;;;;36.17;19.10;;;;;;;1.66;80.81;98319.34;1723261;83;21035;-83
2021/10/31 01:37:22;;;;;;;33.25;18.07;;;;;;;1.54;81.21;98316.16;1740572;82;21132;-82
2021/10/31 01:40:00;;;;;;;30.62;18.17;;;;;;;1.44;80.58;98313.88;1727625;82;20953;-83
2021/10/31 01:42:35;;;;;;;32.50;16.62;;;;;;;1.36;80.38;98308.13;1733167;82;21478;-83
2021/10/31 01:45:09;;;;;;;33.08;17.23;;;;;;;1.30;79.99;98309.77;1748690;82;21036;-83
2021/10/31 01:48:04;;;;;;;30.95;17.35;;;;;;;1.28;79.68;98311.91;1732422;82;21095;-83
2021/10/31 01:50:43;;;;;;;32.65;17.50;;;;;;;1.22;79.64;98312.73;1731737;83;20999;-83
2021/10/31 01:53:24;;;;;;;30.72;17.73;;;;;;;1.18;79.44;98309.63;1702381;83;21068;-83
2021/10/31 01:56:04;;;;;;;33.50;18.23;;;;;;;1.13;79.43;98301.72;1732740;82;21036;-83
2021/10/31 01:58:38;;;;;;;33.63;17.73;;;;;;;1.06;79.45;98299.89;1748490;82;20962;-83
2021/10/31 02:01:07;;;;;;;34.78;18.57;;;;;;;1.04;79.48;98305.09;1748812;82;21025;-82
2021/10/31 02:03:38;;;;;;;34.10;17.75;;;;;;;1.02;79.38;98291.16;1748831;82;21450;-82
2021/10/31 02:06:07;;;;;;;34.25;18.00;;;;;;;0.97;79.32;98294.55;1742921;82;21025;-83
2021/10/31 02:08:36;;;;;;;31.80;17.45;;;;;;;0.96;79.84;98283.66;1712296;83;21009;-82
2021/10/31 02:11:06;;;;;;;34.48;16.05;;;;;;;0.95;79.33;98281.47;1731576;83;21021;-82
2021/10/31 02:13:34;;;;;;;29.45;15.50;;;;;;;0.91;79.23;98282.28;1731680;83;21012;-83
2021/10/31 02:16:01;;;;;;;30.77;16.50;;;;;;;0.88;79.27;98280.95;1736287;82;21443;-83
2021/10/31 02:18:29;;;;;;;31.20;16.62;;;;;;;0.89;79.22;98278.78;1748375;82;21008;-83
2021/10/31 02:20:58;;;;;;;33.60;16.73;;;;;;;0.88;79.46;98283.56;1748491;82;21129;-83
2021/10/31 02:23:25;;;;;;;34.92;17.60;;;;;;;0.87;79.58;98284.42;1748526;82;21001;-83
2021/10/31 02:25:52;;;;;;;34.10;17.17;;;;;;;0.84;80.71;98285.67;1748052;82;21013;-83
2021/10/31 02:28:18;;;;;;;36.42;18.37;;;;;;;0.75;79.64;98274.23;1719327;82;21029;-83
2021/10/31 02:30:45;;;;;;;27.45;15.85;;;;;;;0.72;79.68;98271.61;1748428;82;21009;-83
2021/10/31 02:33:11;;;;;;;31.45;18.07;;;;;;;0.72;79.80;98272.91;1748514;82;21001;-83
2021/10/31 02:35:39;;;;;;;31.55;16.48;;;;;;;0.72;79.75;98274.62;1746855;82;21067;-83
2021/10/31 02:38:07;;;;;;;32.95;17.17;;;;;;;0.70;80.05;98270.69;1731275;82;21017;-83
2021/10/31 02:40:39;;;;;;;31.87;16.60;;;;;;;0.71;79.69;98271.13;1731095;83;21009;-83
2021/10/31 02:43:05;;;;;;;32.50;16.25;;;;;;;0.69;79.58;98277.19;1731173;81;21482;-83
2021/10/31 02:45:31;;;;;;;30.40;15.72;;;;;;;0.65;79.61;98271.05;1732425;82;21491;-83
2021/10/31 02:48:03;;;;;;;32.73;17.85;;;;;;;0.65;79.73;98275.85;1748670;82;21040;-83
2021/10/31 02:50:36;;;;;;;29.87;16.45;;;;;;;0.63;79.55;98273.63;1748360;82;21443;-83
2021/10/31 02:53:30;;;;;;;32.63;16.65;;;;;;;0.63;81.13;98268.86;1747985;81;21020;-83
2021/10/31 02:56:22;;;;;;;28.45;15.95;;;;;;;0.66;80.47;98261.06;1745745;82;21038;-83
2021/10/31 02:58:57;;;;;;;33.95;15.60;;;;;;;0.69;80.50;98270.66;1731491;82;21437;-83
2021/10/31 03:01:25;;;;;;;29.85;15.58;;;;;;;0.70;80.58;98275.91;1731154;83;21044;-83
2021/10/31 03:03:55;;;;;;;29.72;15.60;;;;;;;0.71;81.01;98267.22;1725833;81;21025;-83
2021/10/31 03:06:22;;;;;;;29.40;16.20;;;;;;;0.75;80.96;98264.25;1731206;83;20978;-83
2021/10/31 03:08:50;;;;;;;26.60;15.60;;;;;;;0.77;80.91;98265.13;1731591;83;20957;-83
2021/10/31 03:11:17;;;;;;;32.23;16.40;;;;;;;0.77;80.85;98270.36;1731429;82;20989;-83
2021/10/31 03:13:44;;;;;;;34.80;16.23;;;;;;;0.74;81.07;98273.80;1743451;82;20996;-83
2021/10/31 03:16:11;;;;;;;28.62;15.20;;;;;;;0.72;80.75;98270.72;1748488;82;21096;-83
2021/10/31 03:18:38;;;;;;;31.02;16.25;;;;;;;0.70;80.66;98275.05;1748426;82;21482;-83
2021/10/31 03:21:05;;;;;;;34.58;17.25;;;;;;;0.64;80.81;98275.41;1748682;82;21052;-83
2021/10/31 03:23:32;;;;;;;31.48;16.23;;;;;;;0.59;81.21;98277.08;1738701;82;21045;-83
2021/10/31 03:25:58;;;;;;;27.25;15.63;;;;;;;0.55;80.77;98275.27;1731745;82;21420;-83
2021/10/31 03:28:27;;;;;;;26.15;14.65;;;;;;;0.56;80.16;98283.95;1702812;83;21008;-83
2021/10/31 03:30:53;;;;;;;27.65;15.10;;;;;;;0.51;79.99;98279.98;1731342;83;21023;-83
2021/10/31 03:33:19;;;;;;;28.20;15.08;;;;;;;0.46;79.89;98280.34;1739669;82;20965;-83
2021/10/31 03:35:46;;;;;;;30.15;15.45;;;;;;;0.39;79.84;98277.65;1748773;82;21434;-83
2021/10/31 03:38:12;;;;;;;29.48;15.35;;;;;;;0.33;79.98;98281.44;1719196;82;21108;-83
2021/10/31 03:40:39;;;;;;;28.42;15.18;;;;;;;0.26;79.91;98283.50;1748418;82;21474;-83
2021/10/31 03:43:07;;;;;;;29.32;14.83;;;;;;;0.21;80.01;98272.13;1747985;82;20934;-83
2021/10/31 03:45:33;;;;;;;30.85;15.43;;;;;;;0.17;80.04;98281.60;1748436;82;21073;-83
2021/10/31 03:48:02;;;;;;;29.00;15.20;;;;;;;0.13;80.03;98274.61;1737152;82;21479;-83
2021/10/31 03:50:28;;;;;;;31.52;16.00;;;;;;;0.11;80.24;98277.59;1731387;82;21422;-83
2021/10/31 03:52:55;;;;;;;27.65;15.98;;;;;;;0.07;80.22;98274.48;1736034;82;21073;-83
2021/10/31 03:55:22;;;;;;;29.75;14.90;;;;;;;0.08;80.26;98274.96;1745648;82;21011;-83
2021/10/31 03:57:48;;;;;;;27.07;15.08;;;;;;;0.05;80.31;98282.72;1731594;82;21071;-83
2021/10/31 04:00:15;;;;;;;30.50;15.65;;;;;;;0.04;80.37;98276.61;1731832;83;21103;-85
2021/10/31 04:02:43;;;;;;;28.80;15.48;;;;;;;0.04;80.23;98272.70;1734275;82;20997;-83
2021/10/31 04:05:12;;;;;;;31.45;16.00;;;;;;;0.01;80.22;98270.06;1748481;82;21391;-83
2021/10/31 04:07:39;;;;;;;31.23;16.12;;;;;;;-0.03;80.37;98279.98;1748575;82;21057;-83
2021/10/31 04:10:07;;;;;;;31.30;15.13;;;;;;;-0.03;80.23;98283.44;1748641;82;21072;-83
2021/10/31 04:12:34;;;;;;;27.00;14.30;;;;;;;-0.05;80.20;98277.34;1746450;82;21029;-83
2021/10/31 04:15:09;;;;;;;29.32;14.98;;;;;;;-0.07;80.74;98267.74;1731646;82;21049;-83
2021/10/31 04:17:35;;;;;;;23.05;14.63;;;;;;;-0.06;80.50;98270.80;1731564;83;21428;-83
2021/10/31 04:20:03;;;;;;;26.48;14.95;;;;;;;-0.07;80.41;98273.84;1736677;82;20990;-83
2021/10/31 04:22:29;;;;;;;23.75;13.62;;;;;;;-0.09;80.61;98272.92;1748458;82;21020;-83
2021/10/31 04:24:56;;;;;;;29.00;15.25;;;;;;;-0.09;80.24;98267.71;1748424;81;21470;-83
2021/10/31 04:27:23;;;;;;;25.72;13.85;;;;;;;-0.11;80.57;98256.40;1731635;82;21003;-83
2021/10/31 04:29:50;;;;;;;27.90;14.78;;;;;;;-0.08;80.54;98262.09;1734632;82;20942;-83
2021/10/31 04:32:17;;;;;;;29.05;14.90;;;;;;;-0.06;80.94;98265.58;1719620;82;20989;-83
2021/10/31 04:34:43;;;;;;;28.62;14.78;;;;;;;-0.10;80.62;98260.75;1748212;82;21024;-83
2021/10/31 04:37:10;;;;;;;25.43;14.05;;;;;;;-0.09;81.12;98265.11;1748517;82;20988;-83
2021/10/31 04:39:36;;;;;;;27.40;14.75;;;;;;;-0.08;80.50;98266.85;1747185;82;21057;-83
2021/10/31 04:42:05;;;;;;;28.85;15.45;;;;;;;-0.11;80.51;98260.72;1702601;83;21038;-83
2021/10/31 04:44:33;;;;;;;28.47;14.70;;;;;;;-0.15;80.54;98264.59;1731303;83;21008;-82
2021/10/31 04:47:00;;;;;;;29.20;15.13;;;;;;;-0.19;80.45;98256.67;1731375;83;20996;-82
2021/10/31 04:49:29;;;;;;;25.82;14.58;;;;;;;-0.21;80.74;98265.77;1731507;82;21011;-82
2021/10/31 04:51:55;;;;;;;27.73;14.45;;;;;;;-0.21;80.54;98267.51;1718903;83;21036;-82
2021/10/31 04:54:23;;;;;;;28.80;14.70;;;;;;;-0.26;80.67;98266.11;1718740;83;21060;-82
2021/10/31 04:56:50;;;;;;;26.55;14.18;;;;;;;-0.32;80.63;98264.70;1745416;82;21011;-82
2021/10/31 04:59:17;;;;;;;28.30;14.85;;;;;;;-0.30;80.65;98266.89;1748766;82;21086;-82
2021/10/31 05:01:45;;;;;;;23.00;13.88;;;;;;;-0.30;80.73;98265.17;1748142;82;20977;-82
2021/10/31 05:04:12;;;;;;;30.40;14.30;;;;;;;-0.32;80.60;98262.09;1748426;82;21049;-82
2021/10/31 05:06:39;;;;;;;27.13;14.90;;;;;;;-0.29;80.58;98271.28;1748447;82;20993;-82
2021/10/31 05:09:06;;;;;;;28.38;15.00;;;;;;;-0.31;80.52;98269.94;1748708;82;20978;-82
2021/10/31 05:11:32;;;;;;;31.95;15.63;;;;;;;-0.30;80.60;98263.87;1748763;82;21497;-82
2021/10/31 05:13:59;;;;;;;30.43;15.45;;;;;;;-0.29;80.65;98266.92;1748196;82;21037;-82
2021/10/31 05:16:25;;;;;;;26.30;13.90;;;;;;;-0.31;80.58;98271.25;1737403;82;21051;-82
2021/10/31 05:18:52;;;;;;;28.35;14.13;;;;;;;-0.36;80.91;98266.79;1738821;82;21013;-82
2021/10/31 05:21:18;;;;;;;28.60;15.20;;;;;;;-0.33;80.99;98267.72;1741735;82;21052;-82
2021/10/31 05:23:45;;;;;;;29.80;15.13;;;;;;;-0.36;80.96;98268.09;1717441;83;21067;-82
2021/10/31 05:26:11;;;;;;;26.60;14.23;;;;;;;-0.36;80.96;98262.88;1718194;81;21414;-82
2021/10/31 05:28:38;;;;;;;25.12;14.73;;;;;;;-0.32;80.98;98272.10;1727968;82;21024;-82
2021/10/31 05:31:04;;;;;;;27.20;13.62;;;;;;;-0.31;81.14;98269.05;1748592;82;21019;-82
2021/10/31 05:33:33;;;;;;;27.07;14.78;;;;;;;-0.29;81.12;98264.77;1748642;82;21068;-82
2021/10/31 05:35:59;;;;;;;25.35;13.22;;;;;;;-0.29;80.83;98268.23;1748251;82;21009;-82
2021/10/31 05:38:26;;;;;;;23.32;14.23;;;;;;;-0.28;80.83;98266.07;1748310;82;21033;-82
2021/10/31 05:40:52;;;;;;;28.25;14.45;;;;;;;-0.24;80.88;98271.34;1748656;82;21047;-82
2021/10/31 05:43:19;;;;;;;29.37;14.90;;;;;;;-0.20;80.83;98272.72;1748410;82;21454;-82
2021/10/31 05:45:46;;;;;;;30.40;15.18;;;;;;;-0.20;81.35;98269.26;1748229;82;20980;-82
2021/10/31 05:48:14;;;;;;;31.82;15.53;;;;;;;-0.17;81.01;98278.00;1748170;82;21043;-82
2021/10/31 05:50:40;;;;;;;32.60;16.00;;;;;;;-0.14;80.87;98276.77;1719002;82;20997;-82
2021/10/31 05:53:08;;;;;;;28.95;15.95;;;;;;;-0.13;80.75;98275.02;1748537;82;21044;-82
2021/10/31 05:55:35;;;;;;;29.02;15.53;;;;;;;-0.09;81.08;98287.25;1749024;82;21075;-82
2021/10/31 05:58:02;;;;;;;28.73;14.83;;;;;;;-0.05;80.97;98281.25;1751530;82;21112;-82
2021/10/31 06:00:29;;;;;;;29.23;14.87;;;;;;;-0.04;81.29;98286.05;1751850;82;21455;-82
2021/10/31 06:02:56;;;;;;;29.10;14.75;;;;;;;0.01;81.61;98287.42;1751724;82;21506;-82
2021/10/31 06:05:22;;;;;;;28.75;13.88;;;;;;;-0.05;83.17;98290.78;1751686;82;21298;-82
2021/10/31 06:07:49;;;;;;;27.90;15.08;;;;;;;-0.07;81.91;98297.70;1751057;82;21052;-82
2021/10/31 06:10:16;;;;;;;29.27;15.43;;;;;;;-0.04;82.24;98297.77;1751791;82;20961;-82
2021/10/31 06:12:47;;;;;;;26.40;14.38;;;;;;;-0.04;82.64;98297.33;1751544;82;21056;-82
2021/10/31 06:15:17;;;;;;;25.92;15.10;;;;;;;-0.03;82.21;98293.86;1750251;82;21477;-82
2021/10/31 06:17:43;;;;;;;32.78;16.05;;;;;;;0.03;81.83;98289.20;1741573;82;21019;-82
2021/10/31 06:20:14;;;;;;;28.92;16.70;;;;;;;0.08;83.07;98286.24;1751592;82;20989;-83
2021/10/31 06:22:41;;;;;;;32.40;17.10;;;;;;;0.12;82.70;98289.36;1751640;82;21446;-83
2021/10/31 06:25:10;;;;;;;31.07;16.87;;;;;;;0.20;82.84;98293.84;1750943;82;21082;-83
2021/10/31 06:27:37;;;;;;;30.05;16.37;;;;;;;0.29;82.79;98283.98;1741690;82;21013;-83
2021/10/31 06:30:05;;;;;;;33.02;16.97;;;;;;;0.39;82.60;98288.08;1742006;82;21020;-82
2021/10/31 06:32:32;;;;;;;31.35;16.42;;;;;;;0.50;82.62;98288.67;1741904;82;20993;-83
2021/10/31 06:34:59;;;;;;;29.37;16.52;;;;;;;0.60;82.72;98297.50;1742012;82;21052;-83
2021/10/31 06:37:25;;;;;;;33.25;17.87;;;;;;;0.70;82.73;98290.25;1721672;83;21524;-83
2021/10/31 06:39:52;;;;;;;31.37;16.23;;;;;;;0.77;82.98;98301.66;1722072;83;21032;-83
2021/10/31 06:42:18;;;;;;;35.50;17.95;;;;;;;0.83;82.95;98292.61;1722029;83;21017;-83
2021/10/31 06:44:45;;;;;;;34.95;19.25;;;;;;;0.89;82.76;98292.72;1723728;82;21505;-82
2021/10/31 06:47:12;;;;;;;35.95;18.17;;;;;;;0.95;82.41;98289.75;1750357;82;20929;-82
2021/10/31 06:49:41;;;;;;;34.00;18.02;;;;;;;1.00;82.17;98295.45;1751951;82;21010;-83
2021/10/31 06:52:07;;;;;;;32.95;17.92;;;;;;;1.04;82.84;98296.40;1751903;82;21450;-83
2021/10/31 06:54:34;;;;;;;34.15;18.42;;;;;;;1.08;81.74;98293.39;1751627;82;21068;-83
2021/10/31 06:57:00;;;;;;;31.70;16.95;;;;;;;1.14;81.75;98302.60;1751313;82;21046;-84
2021/10/31 06:59:27;;;;;;;32.42;17.27;;;;;;;1.20;81.66;98297.45;1751569;82;21093;-83
2021/10/31 07:01:54;;;;;;;33.18;17.85;;;;;;;1.28;81.59;98289.72;1751893;82;21009;-84
2021/10/31 07:04:20;;;;;;;28.67;16.95;;;;;;;1.34;81.58;98299.38;1761704;81;21032;-84
2021/10/31 07:06:47;;;;;;;34.35;18.05;;;;;;;1.43;81.53;98283.41;1742494;81;21021;-83
2021/10/31 07:09:13;;;;;;;29.57;18.02;;;;;;;1.52;81.40;98294.37;1731352;83;21478;-84
2021/10/31 07:11:40;;;;;;;34.53;18.40;;;;;;;1.61;81.26;98290.12;1731373;82;20966;-84
2021/10/31 07:14:07;;;;;;;36.73;18.52;;;;;;;1.68;81.27;98285.40;1731452;82;20962;-84
2021/10/31 07:16:33;;;;;;;33.98;17.02;;;;;;;1.78;81.02;98291.16;1734641;82;20974;-84
2021/10/31 07:19:01;;;;;;;28.73;16.15;;;;;;;1.88;81.23;98284.73;1746316;82;20959;-84
2021/10/31 07:21:27;;;;;;;28.67;16.37;;;;;;;1.96;81.17;98284.38;1748506;82;21069;-84
2021/10/31 07:23:54;;;;;;;34.90;17.77;;;;;;;2.05;80.91;98277.05;1719381;82;21444;-83
2021/10/31 07:26:21;;;;;;;34.50;18.10;;;;;;;2.14;80.83;98273.22;1747982;82;21012;-83
2021/10/31 07:28:48;;;;;;;31.17;16.97;;;;;;;2.24;80.92;98278.08;1748196;82;20997;-83
2021/10/31 07:31:18;;;;;;;30.57;16.95;;;;;;;2.34;80.88;98280.35;1748685;82;21045;-83
2021/10/31 07:33:46;;;;;;;28.47;16.57;;;;;;;2.45;80.58;98277.38;1748375;82;21088;-83
2021/10/31 07:36:12;;;;;;;32.73;17.27;;;;;;;2.55;80.38;98270.49;1748780;82;21064;-83
2021/10/31 07:38:41;;;;;;;27.50;16.60;;;;;;;2.64;80.33;98265.75;1748342;82;21021;-83
2021/10/31 07:41:07;;;;;;;29.40;15.80;;;;;;;2.75;80.19;98265.38;1748547;82;22136;-83
2021/10/31 07:43:34;;;;;;;25.68;14.63;;;;;;;2.86;79.93;98264.59;1748362;82;21069;-83
2021/10/31 07:46:00;;;;;;;26.23;14.45;;;;;;;2.97;79.80;98265.94;1748625;82;20967;-83
2021/10/31 07:48:27;;;;;;;22.75;13.30;;;;;;;3.08;79.88;98256.84;1748711;82;21448;-83
2021/10/31 07:50:54;;;;;;;26.35;13.70;;;;;;;3.21;79.67;98256.45;1748352;82;21042;-83
2021/10/31 07:53:21;;;;;;;24.90;13.88;;;;;;;3.32;79.49;98259.12;1748238;81;21061;-84
2021/10/31 07:55:53;;;;;;;23.35;13.50;;;;;;;3.41;79.37;98252.61;1749328;82;22257;-84
2021/10/31 07:58:24;;;;;;;23.25;13.10;;;;;;;3.51;79.18;98243.02;1753922;82;21481;-83
2021/10/31 08:00:51;;;;;;;20.35;11.33;;;;;;;3.62;79.04;98251.81;1754046;81;21139;-83
2021/10/31 08:03:19;;;;;;;21.87;11.97;;;;;;;3.71;79.02;98244.39;1751683;81;21478;-83
2021/10/31 08:05:47;;;;;;;18.35;11.12;;;;;;;3.82;78.53;98232.17;1754270;82;21446;-83
2021/10/31 08:08:13;;;;;;;28.95;13.60;;;;;;;3.95;78.42;98238.30;1754277;82;21477;-83
2021/10/31 08:10:40;;;;;;;24.00;13.68;;;;;;;4.08;78.33;98237.01;1754046;82;21001;-84
2021/10/31 08:13:06;;;;;;;25.08;14.23;;;;;;;4.19;78.10;98235.25;1754251;82;21387;-83
2021/10/31 08:15:33;;;;;;;22.05;13.55;;;;;;;4.31;77.85;98238.73;1726172;82;21004;-84
2021/10/31 08:17:59;;;;;;;25.10;14.18;;;;;;;4.41;77.60;98239.20;1754223;82;21453;-83
2021/10/31 08:20:26;;;;;;;30.05;16.85;;;;;;;4.52;77.59;98231.30;1754117;81;21000;-83
2021/10/31 08:22:53;;;;;;;29.27;16.62;;;;;;;4.64;77.53;98240.05;1747337;82;21040;-84
2021/10/31 08:25:20;;;;;;;32.80;17.65;;;;;;;4.77;77.60;98227.30;1734650;82;21003;-83
2021/10/31 08:27:47;;;;;;;43.38;23.95;;;;;;;4.93;77.49;98229.45;1734422;82;21017;-83
2021/10/31 08:30:13;;;;;;;37.65;20.92;;;;;;;5.03;77.09;98223.75;1734545;83;21060;-83
2021/10/31 08:32:48;;;;;;;37.67;21.00;;;;;;;5.14;77.11;98224.58;1739615;82;21438;-83
2021/10/31 08:35:14;;;;;;;;;;;;;;;5.32;77.01;98214.88;1756920;82;21005;-83
2021/10/31 08:37:41;;;;;;;37.50;18.05;;;;;;;5.45;76.64;98220.94;1754268;82;20091;-83
2021/10/31 08:40:09;;;;;;;33.38;18.15;;;;;;;5.60;76.43;98218.65;1754316;82;21466;-83
2021/10/31 08:42:36;;;;;;;32.00;18.60;;;;;;;5.77;76.41;98216.38;1753898;82;21025;-83
2021/10/31 08:45:05;;;;;;;38.90;22.35;;;;;;;5.90;76.10;98217.16;1754195;81;21036;-83
2021/10/31 08:47:32;;;;;;;47.05;24.20;;;;;;;6.02;75.40;98214.88;1754131;82;21505;-83
2021/10/31 08:49:58;;;;;;;41.10;23.02;;;;;;;6.12;75.40;98210.01;1754305;81;21489;-83
2021/10/31 08:52:25;;;;;;;65.25;33.15;;;;;;;6.23;75.32;98205.09;1738456;81;21010;-83
2021/10/31 08:54:52;;;;;;;67.53;37.10;;;;;;;6.32;74.84;98203.70;1754230;81;21060;-84
2021/10/31 08:57:18;;;;;;;51.42;28.90;;;;;;;6.41;74.61;98200.10;1750360;81;21474;-83
2021/10/31 08:59:45;;;;;;;47.33;28.85;;;;;;;6.52;74.49;98194.74;1748581;82;21102;-84
2021/10/31 09:02:11;;;;;;;57.83;32.10;;;;;;;6.65;74.03;98195.48;1737021;82;20982;-83
2021/10/31 09:04:40;;;;;;;53.70;29.98;;;;;;;6.78;73.83;98191.84;1731635;83;21148;-83
2021/10/31 09:07:14;;;;;;;53.87;30.25;;;;;;;6.95;74.03;98183.73;1731597;83;21414;-83
2021/10/31 09:09:39;;;;;;;50.17;29.10;;;;;;;7.08;73.52;98184.46;1731384;82;21056;-83
2021/10/31 09:12:07;;;;;;;49.38;29.80;;;;;;;7.18;72.68;98180.39;1741788;82;21059;-88
2021/10/31 09:14:33;;;;;;;49.85;29.32;;;;;;;7.30;72.84;98178.05;1716271;82;21031;-89
2021/10/31 09:17:01;;;;;;;53.13;30.32;;;;;;;7.42;72.15;98175.22;1734435;82;20993;-89
2021/10/31 09:19:28;;;;;;;47.25;29.67;;;;;;;7.50;72.00;98173.36;1740144;82;21067;-89
2021/10/31 09:21:56;;;;;;;53.08;31.00;;;;;;;7.63;72.09;98176.69;1747060;82;21032;-89
2021/10/31 09:24:23;;;;;;;52.53;31.30;;;;;;;7.72;70.41;98168.22;1719232;82;21461;-89
2021/10/31 09:26:49;;;;;;;56.18;32.38;;;;;;;7.84;71.08;98165.38;1757312;81;21107;-89
2021/10/31 09:29:16;;;;;;;58.20;32.75;;;;;;;7.94;71.14;98160.84;1739971;81;21454;-89
2021/10/31 09:31:45;;;;;;;58.55;32.55;;;;;;;7.99;69.27;98153.72;1766021;81;21055;-89
2021/10/31 09:34:12;;;;;;;57.08;34.05;;;;;;;8.12;69.27;98152.17;1748648;82;21092;-89
2021/10/31 09:36:40;;;;;;;54.18;30.77;;;;;;;8.24;69.00;98143.17;1748598;82;21072;-89
2021/10/31 09:39:09;;;;;;;59.77;32.63;;;;;;;8.37;69.45;98149.09;1748861;82;21041;-89
2021/10/31 09:41:36;;;;;;;52.43;31.52;;;;;;;8.48;69.09;98142.30;1747826;82;21488;-89
2021/10/31 09:44:29;;;;;;;56.83;31.00;;;;;;;8.60;67.69;98138.16;1731593;83;20989;-89
2021/10/31 09:46:52;;;;;;;50.75;29.95;;;;;;;8.70;68.86;98134.87;1728601;82;21084;-89
2021/10/31 09:49:20;;;;;;;52.23;30.50;;;;;;;8.81;68.67;98132.88;1748734;82;21069;-89
2021/10/31 09:51:50;;;;;;;52.15;32.05;;;;;;;8.91;68.80;98132.25;1734800;82;20974;-89
2021/10/31 09:54:19;;;;;;;52.98;30.05;;;;;;;8.98;67.43;98128.56;1731460;83;21056;-89
2021/10/31 09:56:47;;;;;;;50.80;31.80;;;;;;;9.06;66.33;98125.75;1732391;82;21050;-88
2021/10/31 09:59:17;;;;;;;49.23;29.57;;;;;;;9.18;67.02;98123.77;1742305;82;20998;-88
2021/10/31 10:02:12;;;;;;;47.08;29.90;;;;;;;9.28;65.25;98120.02;1716481;83;21032;-88
2021/10/31 10:04:35;;;;;;;44.38;27.22;;;;;;;9.39;66.27;98121.11;1707202;84;21024;-89
2021/10/31 10:07:04;;;;;;;;;;;;;;;9.50;65.24;98123.48;1712210;84;21063;-89
2021/10/31 10:09:33;;;;;;;50.58;28.90;;;;;;;9.58;64.84;98119.33;1711408;83;20347;-88
2021/10/31 10:12:16;;;;;;;48.70;29.95;;;;;;;9.67;64.93;98107.20;1709798;84;21051;-88
2021/10/31 10:14:58;;;;;;;46.73;29.98;;;;;;;9.76;65.46;98100.38;1720869;82;21365;-88
2021/10/31 10:17:24;;;;;;;46.28;28.50;;;;;;;9.89;65.31;98097.43;1740578;82;21038;-88
2021/10/31 10:19:59;;;;;;;44.63;28.32;;;;;;;10.01;64.26;98093.13;1721749;82;21436;-88
2021/10/31 10:22:28;;;;;;;46.00;28.38;;;;;;;10.11;65.08;98092.45;1709915;81;21433;-88
2021/10/31 10:25:01;;;;;;;44.05;26.05;;;;;;;10.26;64.98;98082.36;1709473;84;21520;-88
2021/10/31 10:27:34;;;;;;;42.27;26.55;;;;;;;10.45;65.17;98074.80;1709845;84;21336;-88
2021/10/31 10:30:15;;;;;;;38.30;24.70;;;;;;;11.23;61.51;98068.57;1710769;83;21007;-88
2021/10/31 10:32:57;;;;;;;38.80;24.85;;;;;;;12.43;58.83;98064.64;1709677;84;20996;-88
2021/10/31 10:35:27;;;;;;;40.80;25.15;;;;;;;13.74;56.95;98051.67;1709558;84;21044;-88
2021/10/31 10:37:56;;;;;;;37.23;25.43;;;;;;;15.02;54.06;98052.35;1709566;84;21489;-88
2021/10/31 10:40:26;;;;;;;34.78;24.12;;;;;;;15.96;48.86;98039.41;1710363;81;21040;-88
2021/10/31 10:42:59;;;;;;;34.20;23.18;;;;;;;16.83;50.39;98035.34;1709985;83;21022;-88
2021/10/31 10:45:31;;;;;;;37.53;24.43;;;;;;;17.90;51.81;98023.59;1710609;82;21540;-87
2021/10/31 10:48:05;;;;;;;31.45;23.38;;;;;;;18.84;44.69;98019.70;1681908;84;21487;-88
2021/10/31 10:50:39;;;;;;;33.28;23.57;;;;;;;19.65;44.49;98011.85;1702107;84;21012;-88
2021/10/31 10:53:18;;;;;;;33.63;24.30;;;;;;;20.17;43.66;98007.10;1701769;84;21004;-87
2021/10/31 10:55:46;;;;;;;33.18;23.73;;;;;;;20.79;39.29;98001.92;1701851;84;21519;-87
2021/10/31 10:58:16;;;;;;;28.98;23.07;;;;;;;21.71;36.12;97992.61;1701751;83;20995;-87
2021/10/31 11:00:52;;;;;;;31.27;22.82;;;;;;;21.98;35.47;97984.75;1702054;84;21074;-87
2021/10/31 11:03:21;;;;;;;31.17;23.65;;;;;;;22.42;36.01;97981.78;1685784;84;21456;-87
2021/10/31 11:05:51;;;;;;;27.73;20.92;;;;;;;22.68;31.51;97974.81;1701954;84;21502;-87
2021/10/31 11:08:21;;;;;;;25.60;19.45;;;;;;;23.30;34.86;97978.93;1703206;83;21040;-87
2021/10/31 11:10:56;;;;;;;25.43;19.62;;;;;;;23.69;32.58;97977.97;1695897;85;21465;-86
2021/10/31 11:13:25;;;;;;;27.87;20.70;;;;;;;24.41;31.72;97967.86;1716494;84;21055;-87
2021/10/31 11:15:56;;;;;;;23.12;19.60;;;;;;;24.41;31.72;97967.86;1716370;84;21011;-87
2021/10/31 11:18:22;;;;;;;26.80;19.45;;;;;;;24.99;31.95;97966.42;1698018;84;21048;-86
2021/10/31 11:20:49;;;;;;;24.63;19.82;;;;;;;24.93;27.43;97964.77;1687943;85;21033;-87
2021/10/31 11:23:22;;;;;;;26.90;20.27;;;;;;;24.87;27.66;97958.89;1702034;84;21048;-87
2021/10/31 11:25:51;;;;;;;25.62;20.52;;;;;;;24.51;28.21;97957.09;1707234;84;21071;-88
2021/10/31 11:28:21;;;;;;;28.12;20.32;;;;;;;24.41;27.65;97950.77;1713158;84;21012;-87
2021/10/31 11:30:50;;;;;;;24.87;20.48;;;;;;;24.72;31.50;97953.47;1713372;84;20997;-87
2021/10/31 11:33:17;;;;;;;29.63;20.35;;;;;;;25.00;28.68;97945.61;1708405;84;20992;-86
2021/10/31 11:35:43;;;;;;;25.30;20.05;;;;;;;24.84;27.83;97929.38;1696533;84;21480;-88